Time;durP1;ratioP1;P1;durP2;ratioP2;P2;SDS_P1;SDS_P2;PMS_P1;PMS_P2;Temp;Humidity;BMP_temperature;BMP_pressure;BME280_temperature;BME280_humidity;BME280_pressure;Samples;Min_cycle;Max_cycle;Signal;HPM_P1;HPM_P2
2022/05/12 00:02:18;;;;;;;4.35;2.03;;;15.60;99.90;;;;;;5038851;28;20025;-71
2022/05/12 00:04:43;;;;;;;5.68;2.42;;;15.60;99.90;;;;;;5039683;28;20017;-71
2022/05/12 00:07:09;;;;;;;3.45;1.70;;;15.60;99.90;;;;;;5040738;28;20449;-71
2022/05/12 00:09:35;;;;;;;6.40;2.33;;;15.60;99.90;;;;;;5038313;28;20096;-71
2022/05/12 00:12:00;;;;;;;7.88;1.80;;;15.70;99.90;;;;;;5039033;28;20033;-71
2022/05/12 00:14:28;;;;;;;3.05;2.28;;;15.70;99.90;;;;;;5038652;28;20522;-71
2022/05/12 00:16:56;;;;;;;3.53;1.67;;;15.70;99.90;;;;;;5038968;28;20445;-71
2022/05/12 00:19:23;;;;;;;3.92;1.70;;;15.70;99.90;;;;;;5039098;28;20414;-71
2022/05/12 00:21:49;;;;;;;4.38;1.70;;;15.60;99.90;;;;;;5020608;28;20487;-70
2022/05/12 00:24:16;;;;;;;4.35;1.90;;;15.60;99.90;;;;;;5020918;28;20036;-70
2022/05/12 00:26:43;;;;;;;3.05;1.95;;;15.60;99.90;;;;;;5020595;28;20104;-71
2022/05/12 00:29:09;;;;;;;4.13;1.98;;;15.60;99.90;;;;;;5019872;28;20026;-71
2022/05/12 00:31:37;;;;;;;6.80;2.08;;;15.60;99.90;;;;;;5019828;28;20021;-71
2022/05/12 00:34:06;;;;;;;4.07;1.88;;;15.50;99.90;;;;;;5037723;28;20487;-71
2022/05/12 00:36:33;;;;;;;3.42;2.00;;;15.50;99.90;;;;;;5019880;28;20061;-71
2022/05/12 00:38:58;;;;;;;2.53;1.75;;;15.50;99.90;;;;;;5037334;28;20413;-71
2022/05/12 00:41:24;;;;;;;7.25;1.67;;;15.60;99.90;;;;;;5019995;28;20032;-71
2022/05/12 00:43:53;;;;;;;3.42;2.13;;;15.50;99.90;;;;;;5019842;28;20360;-71
2022/05/12 00:46:22;;;;;;;5.15;1.75;;;15.40;99.90;;;;;;5037550;28;20036;-71
2022/05/12 00:48:50;;;;;;;10.10;2.35;;;15.20;99.90;;;;;;5019529;28;20029;-71
2022/05/12 00:51:21;;;;;;;4.25;1.70;;;15.20;99.90;;;;;;5019289;28;20090;-71
2022/05/12 00:53:50;;;;;;;14.18;2.25;;;15.10;99.90;;;;;;5038339;28;20079;-71
2022/05/12 00:56:20;;;;;;;7.13;1.80;;;15.00;99.90;;;;;;5037486;28;20027;-71
2022/05/12 00:58:49;;;;;;;6.47;1.92;;;15.00;99.90;;;;;;5037541;28;20065;-71
2022/05/12 01:01:16;;;;;;;7.25;2.10;;;15.00;99.90;;;;;;5037774;28;20026;-71
2022/05/12 01:03:43;;;;;;;4.75;2.40;;;14.90;99.90;;;;;;5019793;28;20067;-71
2022/05/12 01:06:11;;;;;;;11.70;2.10;;;14.90;99.90;;;;;;5038661;28;20407;-71
2022/05/12 01:08:37;;;;;;;5.30;2.35;;;14.70;99.90;;;;;;5038972;28;20459;-71
2022/05/12 01:11:15;;;;;;;7.97;2.40;;;14.70;99.90;;;;;;5038709;28;20087;-71
2022/05/12 01:13:44;;;;;;;13.07;2.47;;;14.70;99.90;;;;;;5039573;28;20033;-71
2022/05/12 01:16:09;;;;;;;12.45;2.72;;;14.60;99.90;;;;;;5021398;28;20137;-70
2022/05/12 01:18:38;;;;;;;8.55;2.35;;;14.50;99.90;;;;;;5038417;28;20037;-72
2022/05/12 01:21:04;;;;;;;8.52;2.75;;;14.50;99.90;;;;;;5038873;28;20025;-71
2022/05/12 01:23:37;;;;;;;10.75;2.30;;;14.50;99.90;;;;;;5039501;28;20049;-71
2022/05/12 01:26:06;;;;;;;6.10;2.97;;;14.40;99.90;;;;;;5022355;28;20093;-72
2022/05/12 01:28:32;;;;;;;14.05;2.42;;;14.40;99.90;;;;;;5022233;28;20107;-71
2022/05/12 01:30:59;;;;;;;7.03;2.50;;;14.30;99.90;;;;;;5039860;28;20025;-71
2022/05/12 01:33:24;;;;;;;9.73;2.53;;;14.30;99.90;;;;;;5039153;28;20548;-71
2022/05/12 01:35:50;;;;;;;8.60;2.58;;;14.20;99.90;;;;;;5020524;28;20033;-71
2022/05/12 01:38:16;;;;;;;10.93;2.40;;;14.20;99.90;;;;;;5039142;28;20049;-71
2022/05/12 01:40:43;;;;;;;8.30;2.75;;;14.10;99.90;;;;;;5039104;28;20426;-71
2022/05/12 01:43:13;;;;;;;8.23;2.88;;;14.00;99.90;;;;;;5041075;28;20072;-71
2022/05/12 01:45:40;;;;;;;11.05;2.42;;;14.00;99.90;;;;;;5024090;28;20072;-71
2022/05/12 01:48:08;;;;;;;16.13;2.88;;;13.80;99.90;;;;;;5042012;28;20041;-70
2022/05/12 01:50:35;;;;;;;12.85;2.58;;;13.60;99.90;;;;;;5021877;28;20045;-72
2022/05/12 01:53:03;;;;;;;8.70;2.05;;;13.50;99.90;;;;;;5037674;28;20447;-71
2022/05/12 01:55:28;;;;;;;9.80;2.60;;;13.40;99.90;;;;;;5037664;28;20071;-71
2022/05/12 01:57:57;;;;;;;9.65;2.58;;;13.40;99.90;;;;;;5038382;28;20446;-71
2022/05/12 02:00:26;;;;;;;8.70;2.17;;;13.30;99.90;;;;;;5038318;28;20078;-71
2022/05/12 02:02:52;;;;;;;7.05;2.25;;;13.20;99.90;;;;;;5040414;28;20033;-71
2022/05/12 02:05:18;;;;;;;4.70;1.85;;;13.10;99.90;;;;;;5021519;28;20422;-71
2022/05/12 02:07:46;;;;;;;11.38;2.33;;;13.00;99.90;;;;;;5037862;28;20033;-71
2022/05/12 02:10:17;;;;;;;3.95;1.63;;;13.00;99.90;;;;;;5019497;28;20025;-71
2022/05/12 02:12:43;;;;;;;5.50;1.73;;;12.90;99.90;;;;;;5036487;28;20075;-71
2022/05/12 02:15:10;;;;;;;9.80;1.73;;;12.80;99.90;;;;;;5036049;28;20406;-71
2022/05/12 02:17:36;;;;;;;5.55;1.70;;;12.70;99.90;;;;;;5036199;28;20033;-71
2022/05/12 02:20:02;;;;;;;2.70;1.42;;;12.60;99.90;;;;;;5036564;28;20382;-71
2022/05/12 02:22:27;;;;;;;2.15;1.40;;;12.60;99.90;;;;;;5019262;28;20028;-71
2022/05/12 02:24:53;;;;;;;3.60;1.17;;;12.50;99.90;;;;;;5020177;28;20025;-70
2022/05/12 02:27:20;;;;;;;1.95;1.27;;;12.40;99.90;;;;;;5037595;28;20551;-71
2022/05/12 02:29:45;;;;;;;4.68;1.10;;;12.40;99.90;;;;;;5037376;28;20031;-71
2022/05/12 02:32:11;;;;;;;5.47;1.40;;;12.50;99.90;;;;;;5038253;28;20108;-71
2022/05/12 02:34:37;;;;;;;4.80;2.00;;;12.40;99.90;;;;;;5018970;28;20437;-70
2022/05/12 02:37:05;;;;;;;1.85;1.38;;;12.30;99.90;;;;;;5036421;28;20136;-71
2022/05/12 02:39:35;;;;;;;3.67;1.17;;;12.30;99.90;;;;;;5036015;28;20056;-71
2022/05/12 02:42:01;;;;;;;3.00;1.33;;;12.30;99.90;;;;;;5018570;28;20491;-71
2022/05/12 02:44:26;;;;;;;6.97;1.73;;;12.20;99.90;;;;;;5036614;28;20021;-71
2022/05/12 02:46:52;;;;;;;2.65;1.05;;;12.20;99.90;;;;;;5037640;28;20048;-71
2022/05/12 02:49:17;;;;;;;4.53;0.95;;;12.20;99.90;;;;;;5036888;28;20025;-71
2022/05/12 02:51:43;;;;;;;4.78;1.40;;;12.20;99.90;;;;;;5036596;28;20026;-71
2022/05/12 02:54:13;;;;;;;3.53;1.40;;;12.20;99.90;;;;;;5018383;28;20030;-71
2022/05/12 02:56:39;;;;;;;5.80;1.48;;;12.10;99.90;;;;;;5018123;28;20022;-71
2022/05/12 02:59:06;;;;;;;2.15;1.13;;;12.10;99.90;;;;;;5035984;28;20390;-70
2022/05/12 03:01:32;;;;;;;4.40;1.73;;;12.00;99.90;;;;;;5018420;28;20022;-71
2022/05/12 03:03:58;;;;;;;10.00;1.58;;;12.00;99.90;;;;;;5036804;28;20036;-71
2022/05/12 03:06:24;;;;;;;7.20;1.60;;;12.00;99.90;;;;;;5018757;28;20367;-71
2022/05/12 03:08:50;;;;;;;3.40;1.45;;;12.00;99.90;;;;;;5019517;28;20025;-71
2022/05/12 03:11:16;;;;;;;5.13;1.40;;;11.90;99.90;;;;;;5037743;28;20022;-70
2022/05/12 03:13:42;;;;;;;4.07;1.50;;;11.90;99.90;;;;;;5037965;28;20495;-71
2022/05/12 03:16:07;;;;;;;5.00;1.50;;;12.00;99.90;;;;;;5019070;28;20021;-71
2022/05/12 03:18:33;;;;;;;3.33;1.30;;;11.90;99.90;;;;;;5018963;28;20030;-71
2022/05/12 03:20:59;;;;;;;6.70;1.20;;;12.00;99.90;;;;;;5036254;28;20052;-72
2022/05/12 03:23:24;;;;;;;3.65;1.40;;;11.90;99.90;;;;;;5037364;28;20049;-71
2022/05/12 03:25:52;;;;;;;9.05;1.70;;;11.90;99.90;;;;;;5037894;28;20024;-71
2022/05/12 03:28:17;;;;;;;7.85;1.52;;;11.80;99.90;;;;;;5019787;28;20033;-71
2022/05/12 03:30:43;;;;;;;4.60;1.60;;;11.80;99.90;;;;;;5037745;28;20029;-70
2022/05/12 03:33:10;;;;;;;7.63;1.83;;;11.80;99.90;;;;;;5038883;28;20028;-71
2022/05/12 03:35:36;;;;;;;4.20;1.30;;;11.80;99.90;;;;;;5020002;28;20033;-71
2022/05/12 03:38:03;;;;;;;5.93;1.55;;;11.80;99.90;;;;;;5019856;28;20029;-71
2022/05/12 03:40:30;;;;;;;3.65;1.42;;;11.80;99.90;;;;;;5037425;28;20036;-71
2022/05/12 03:42:59;;;;;;;4.90;1.95;;;11.70;99.90;;;;;;5020014;28;20071;-71
2022/05/12 03:45:29;;;;;;;9.10;1.95;;;11.70;99.90;;;;;;5039799;28;20045;-71
2022/05/12 03:47:56;;;;;;;5.63;2.30;;;11.70;99.90;;;;;;5040407;28;20103;-71
2022/05/12 03:50:24;;;;;;;6.53;2.20;;;11.70;99.90;;;;;;5039681;28;20021;-70
2022/05/12 03:52:52;;;;;;;9.88;2.67;;;11.60;99.90;;;;;;5039750;28;20553;-71
2022/05/12 03:55:21;;;;;;;8.88;2.28;;;11.60;99.90;;;;;;5042259;28;20037;-70
2022/05/12 03:57:48;;;;;;;6.57;2.42;;;11.60;99.90;;;;;;5040294;28;20018;-70
2022/05/12 04:00:18;;;;;;;6.97;2.75;;;11.60;99.90;;;;;;5045983;28;20033;-70
2022/05/12 04:02:44;;;;;;;6.35;2.67;;;11.60;99.90;;;;;;5043757;28;20025;-71
2022/05/12 04:05:10;;;;;;;7.70;2.85;;;11.60;99.90;;;;;;5040405;28;20029;-71
2022/05/12 04:07:41;;;;;;;7.35;2.78;;;11.60;99.90;;;;;;5040008;28;20048;-74
2022/05/12 04:10:07;;;;;;;8.48;2.75;;;11.70;99.90;;;;;;5040692;28;20036;-71
2022/05/12 04:12:32;;;;;;;10.07;3.00;;;11.70;99.90;;;;;;5040361;28;20029;-72
2022/05/12 04:14:59;;;;;;;10.75;3.40;;;11.70;99.90;;;;;;5040563;28;20060;-72
2022/05/12 04:17:25;;;;;;;9.82;3.22;;;11.70;99.90;;;;;;5038499;28;20017;-71
2022/05/12 04:19:52;;;;;;;6.13;3.17;;;11.70;99.90;;;;;;5041068;28;20021;-72
2022/05/12 04:22:18;;;;;;;10.82;3.47;;;11.60;99.90;;;;;;5042470;28;20021;-71
2022/05/12 04:24:44;;;;;;;6.75;2.58;;;11.60;99.90;;;;;;5040658;28;20022;-70
2022/05/12 04:27:10;;;;;;;5.90;2.50;;;11.70;99.90;;;;;;5039081;28;20033;-70
2022/05/12 04:29:37;;;;;;;7.68;2.60;;;11.70;99.90;;;;;;5038742;28;20474;-71
2022/05/12 04:32:03;;;;;;;9.75;3.22;;;11.80;99.90;;;;;;5038999;28;20030;-70
2022/05/12 04:37:13;;;;;;;6.43;2.53;;;11.90;99.90;;;;;;5039253;28;20097;-70
2022/05/12 04:39:38;;;;;;;7.20;3.10;;;11.80;99.90;;;;;;5021903;28;20105;-70
2022/05/12 04:42:04;;;;;;;5.70;2.42;;;11.90;99.90;;;;;;5040761;28;20526;-71
2022/05/12 04:44:30;;;;;;;8.50;2.75;;;12.00;99.90;;;;;;5025885;28;20093;-71
2022/05/12 04:46:55;;;;;;;9.13;2.50;;;12.00;99.90;;;;;;5039504;28;20064;-70
2022/05/12 04:49:22;;;;;;;8.98;2.92;;;12.10;99.90;;;;;;5021499;28;20026;-70
2022/05/12 04:51:48;;;;;;;8.25;2.60;;;12.20;99.90;;;;;;5041772;28;20037;-70
2022/05/12 04:54:14;;;;;;;4.93;2.33;;;12.10;99.90;;;;;;5042734;28;20029;-70
2022/05/12 04:56:41;;;;;;;11.10;2.55;;;12.10;99.90;;;;;;5026379;28;20046;-71
2022/05/12 04:59:08;;;;;;;9.75;2.90;;;12.20;99.90;;;;;;5043578;28;20052;-71
2022/05/12 05:01:34;;;;;;;6.50;2.88;;;12.20;99.90;;;;;;5043282;28;20060;-71
2022/05/12 05:04:00;;;;;;;4.57;2.22;;;12.30;99.90;;;;;;5045660;28;20025;-70
2022/05/12 05:06:30;;;;;;;6.90;2.50;;;12.30;99.90;;;;;;5044968;28;20100;-70
2022/05/12 05:08:57;;;;;;;6.63;2.33;;;12.20;99.90;;;;;;5029043;28;20030;-70
2022/05/12 05:11:22;;;;;;;5.43;2.75;;;12.20;99.90;;;;;;5044000;28;20103;-71
2022/05/12 05:13:48;;;;;;;6.82;2.60;;;12.20;99.90;;;;;;5028349;28;20033;-70
2022/05/12 05:16:14;;;;;;;4.78;2.40;;;12.20;99.90;;;;;;5039122;28;20036;-72
2022/05/12 05:18:40;;;;;;;7.75;2.58;;;12.20;99.90;;;;;;5021465;28;20048;-73
2022/05/12 05:21:06;;;;;;;7.53;2.88;;;12.20;99.90;;;;;;5021809;28;20017;-73
2022/05/12 05:23:31;;;;;;;7.03;2.20;;;12.20;99.90;;;;;;5039160;28;20105;-73
2022/05/12 05:25:57;;;;;;;6.43;2.22;;;12.30;99.90;;;;;;5021712;28;20101;-72
2022/05/12 05:28:23;;;;;;;8.32;2.35;;;12.40;99.90;;;;;;5021957;28;20033;-73
2022/05/12 05:30:50;;;;;;;8.20;2.45;;;12.50;99.90;;;;;;5022736;28;20459;-72
2022/05/12 05:33:16;;;;;;;4.95;2.28;;;12.40;99.90;;;;;;5022060;28;20083;-72
2022/05/12 05:35:42;;;;;;;7.85;2.40;;;12.50;99.90;;;;;;5021792;28;20491;-72
2022/05/12 05:38:08;;;;;;;9.65;2.88;;;12.60;99.90;;;;;;5039833;28;20037;-72
2022/05/12 05:40:33;;;;;;;4.10;2.13;;;12.40;99.90;;;;;;5039487;28;20029;-69
2022/05/12 05:43:00;;;;;;;7.63;2.75;;;12.50;99.90;;;;;;5040332;28;20104;-70
2022/05/12 05:45:27;;;;;;;4.18;2.45;;;12.40;99.90;;;;;;5023425;28;20074;-71
2022/05/12 05:47:58;;;;;;;10.60;3.22;;;12.40;99.90;;;;;;5024587;28;20497;-70
2022/05/12 05:50:28;;;;;;;6.55;2.60;;;12.40;99.90;;;;;;5029081;28;20497;-71
2022/05/12 05:55:41;;;;;;;6.43;2.97;;;12.60;99.90;;;;;;5042898;28;20033;-70
2022/05/12 05:58:08;;;;;;;8.70;2.80;;;12.60;99.90;;;;;;5045299;28;20085;-70
2022/05/12 06:00:36;;;;;;;10.23;2.40;;;12.70;99.90;;;;;;5045765;28;20018;-70
2022/05/12 06:03:02;;;;;;;17.02;3.38;;;12.90;99.90;;;;;;5038023;28;20093;-71
2022/05/12 06:05:28;;;;;;;7.78;2.97;;;12.90;99.90;;;;;;5034889;28;20014;-71
2022/05/12 06:07:55;;;;;;;6.68;3.00;;;13.00;99.90;;;;;;5034725;28;20055;-71
2022/05/12 06:10:21;;;;;;;8.45;3.63;;;13.00;99.90;;;;;;5017148;28;20040;-72
2022/05/12 06:12:49;;;;;;;5.25;2.92;;;13.10;99.90;;;;;;5035701;28;20415;-71
2022/05/12 06:15:15;;;;;;;12.32;3.35;;;13.10;99.90;;;;;;5035338;28;20021;-73
2022/05/12 06:17:41;;;;;;;8.80;3.28;;;13.20;99.90;;;;;;5039871;28;20022;-71
2022/05/12 06:20:12;;;;;;;9.50;2.85;;;13.40;99.90;;;;;;5049035;28;20044;-71
2022/05/12 06:22:38;;;;;;;8.10;3.15;;;13.40;99.90;;;;;;5047865;28;20049;-71
2022/05/12 06:25:07;;;;;;;7.47;2.97;;;13.40;99.90;;;;;;5039015;28;20033;-71
2022/05/12 06:27:33;;;;;;;7.68;2.97;;;13.50;99.90;;;;;;5037715;28;20021;-71
2022/05/12 06:29:59;;;;;;;8.77;3.38;;;13.50;99.90;;;;;;5036875;28;20170;-72
2022/05/12 06:32:26;;;;;;;10.77;3.15;;;13.50;99.90;;;;;;5036066;28;20083;-72
2022/05/12 06:34:52;;;;;;;8.52;2.55;;;13.60;99.90;;;;;;5036178;28;20470;-72
2022/05/12 06:37:19;;;;;;;8.88;3.25;;;13.70;99.90;;;;;;5018281;28;20029;-71
2022/05/12 06:39:44;;;;;;;6.57;2.75;;;13.80;99.90;;;;;;5017834;28;20087;-72
2022/05/12 06:42:10;;;;;;;6.50;2.33;;;13.90;99.90;;;;;;5035921;28;20029;-71
2022/05/12 06:44:36;;;;;;;7.78;2.28;;;13.90;99.90;;;;;;5036732;28;20032;-72
2022/05/12 06:47:06;;;;;;;6.70;2.30;;;14.00;99.90;;;;;;5036673;28;20028;-72
2022/05/12 06:49:33;;;;;;;6.00;2.67;;;14.00;99.90;;;;;;5019403;28;20489;-72
2022/05/12 06:51:59;;;;;;;11.63;2.80;;;14.00;99.90;;;;;;5038386;28;20544;-70
2022/05/12 06:54:25;;;;;;;5.60;2.20;;;14.10;99.90;;;;;;5039815;28;20038;-70
2022/05/12 06:56:50;;;;;;;6.80;2.78;;;14.20;99.90;;;;;;5036725;28;20021;-71
2022/05/12 06:59:16;;;;;;;6.30;2.10;;;14.20;99.90;;;;;;5032199;28;20025;-71
2022/05/12 07:01:41;;;;;;;3.25;1.80;;;14.30;99.90;;;;;;5036082;28;20038;-70
2022/05/12 07:04:07;;;;;;;11.25;2.60;;;14.40;99.90;;;;;;5018369;28;20033;-71
2022/05/12 07:06:32;;;;;;;6.00;2.28;;;14.50;99.90;;;;;;5036779;28;20072;-70
2022/05/12 07:08:59;;;;;;;6.22;3.00;;;14.50;99.90;;;;;;5015627;28;20028;-70
2022/05/12 07:11:25;;;;;;;7.07;2.25;;;14.60;99.90;;;;;;5036234;28;20030;-70
2022/05/12 07:13:50;;;;;;;7.30;2.70;;;14.60;99.90;;;;;;5035763;28;20108;-70
2022/05/12 07:16:16;;;;;;;6.43;2.20;;;14.80;99.90;;;;;;5036165;28;20025;-71
2022/05/12 07:18:41;;;;;;;5.80;2.45;;;14.90;99.90;;;;;;5036387;28;20089;-71
2022/05/12 07:26:40;;;;;;;13.38;2.58;;;15.50;99.90;;;;;;5035908;28;20036;-71
2022/05/12 07:29:09;;;;;;;6.72;2.58;;;15.70;99.90;;;;;;5017393;28;20045;-71
2022/05/12 07:31:35;;;;;;;9.77;2.38;;;15.80;99.90;;;;;;5035368;28;20022;-71
2022/05/12 07:34:00;;;;;;;5.78;2.20;;;15.50;99.90;;;;;;5035621;28;20544;-71
2022/05/12 07:36:30;;;;;;;9.50;2.70;;;15.50;99.90;;;;;;5021380;28;20029;-69
2022/05/12 07:38:56;;;;;;;8.82;3.17;;;15.40;99.90;;;;;;5038617;28;20498;-70
2022/05/12 07:41:23;;;;;;;6.80;2.38;;;15.60;99.90;;;;;;5039396;28;20478;-71
2022/05/12 07:43:49;;;;;;;7.93;2.58;;;15.70;99.90;;;;;;5039155;28;20045;-71
2022/05/12 07:46:17;;;;;;;3.78;2.08;;;15.90;99.90;;;;;;5021256;28;20083;-71
2022/05/12 07:48:42;;;;;;;5.20;2.83;;;15.90;99.90;;;;;;5021534;28;20033;-70
2022/05/12 07:51:08;;;;;;;6.43;2.47;;;16.00;99.90;;;;;;5039373;28;20029;-71
2022/05/12 07:53:35;;;;;;;5.75;2.35;;;16.00;99.90;;;;;;5039046;28;20057;-70
2022/05/12 07:56:01;;;;;;;3.75;2.35;;;16.10;99.90;;;;;;5039037;28;20091;-70
2022/05/12 07:58:27;;;;;;;8.18;2.38;;;16.20;99.90;;;;;;5039067;28;20026;-71
2022/05/12 08:00:53;;;;;;;5.93;2.20;;;16.30;99.90;;;;;;5020738;28;20449;-71
2022/05/12 08:03:22;;;;;;;3.50;1.67;;;16.40;99.90;;;;;;5039507;28;20048;-70
2022/05/12 08:05:47;;;;;;;7.38;2.40;;;16.50;99.90;;;;;;5039832;28;20505;-71
2022/05/12 08:08:13;;;;;;;4.95;2.38;;;16.50;99.90;;;;;;5022538;28;20037;-71
2022/05/12 08:10:39;;;;;;;7.53;2.85;;;16.50;99.90;;;;;;5038861;28;20112;-69
2022/05/12 08:13:04;;;;;;;6.82;2.38;;;16.60;99.90;;;;;;5021100;28;20123;-70
2022/05/12 08:15:31;;;;;;;6.28;2.30;;;16.70;99.90;;;;;;5040211;28;20071;-70
2022/05/12 08:17:57;;;;;;;11.60;2.50;;;16.70;99.90;;;;;;5039239;28;20140;-71
2022/05/12 08:20:25;;;;;;;5.82;2.50;;;16.60;99.90;;;;;;5038476;28;20025;-71
2022/05/12 08:22:51;;;;;;;8.88;2.53;;;16.60;99.90;;;;;;5038494;28;20076;-71
2022/05/12 08:25:18;;;;;;;4.57;2.42;;;16.60;99.90;;;;;;5020993;28;20071;-71
2022/05/12 08:27:44;;;;;;;7.90;2.50;;;16.70;99.90;;;;;;5039471;28;20032;-71
2022/05/12 08:30:12;;;;;;;3.30;1.60;;;16.60;99.90;;;;;;5038517;28;20029;-71
2022/05/12 08:32:38;;;;;;;6.18;2.13;;;16.70;99.90;;;;;;5038875;28;20049;-71
2022/05/12 08:35:05;;;;;;;9.82;1.88;;;16.90;99.90;;;;;;5038149;28;20391;-71
2022/05/12 08:37:31;;;;;;;4.80;2.15;;;16.90;99.90;;;;;;5037931;28;20033;-72
2022/05/12 08:39:56;;;;;;;7.38;2.10;;;17.10;99.90;;;;;;5038070;28;20027;-71
2022/05/12 08:42:41;;;;;;;9.00;2.58;;;17.20;99.90;;;;;;5020428;28;20033;-72
2022/05/12 08:45:11;;;;;;;6.47;1.70;;;17.20;99.90;;;;;;5037569;28;20464;-71
2022/05/12 08:47:43;;;;;;;6.95;1.77;;;17.40;99.90;;;;;;5036495;28;20029;-71
2022/05/12 08:50:24;;;;;;;8.15;1.90;;;17.40;99.90;;;;;;5022017;28;20397;-69
2022/05/12 08:52:54;;;;;;;4.63;1.80;;;17.20;99.90;;;;;;5037877;28;20022;-71
2022/05/12 08:55:21;;;;;;;7.55;1.35;;;17.20;99.90;;;;;;5037396;28;20025;-71
2022/05/12 08:58:00;;;;;;;6.20;1.50;;;17.20;99.90;;;;;;5029166;28;20566;-71
2022/05/12 09:00:32;;;;;;;2.40;1.42;;;17.30;99.90;;;;;;5017245;28;20022;-71
2022/05/12 09:03:27;;;;;;;4.10;1.50;;;17.40;99.90;;;;;;5017781;28;20022;-72
2022/05/12 09:06:03;;;;;;;4.38;1.58;;;17.50;99.90;;;;;;5017601;28;20032;-72
2022/05/12 09:08:54;;;;;;;6.25;1.52;;;17.70;99.90;;;;;;4999504;28;20033;-72
2022/05/12 09:11:25;;;;;;;2.53;1.33;;;17.50;99.90;;;;;;5018106;28;20030;-71
2022/05/12 09:13:53;;;;;;;6.35;1.67;;;17.70;99.90;;;;;;5017660;28;20080;-71
2022/05/12 09:16:26;;;;;;;7.72;1.70;;;17.90;99.90;;;;;;5017508;28;20038;-71
2022/05/12 09:18:53;;;;;;;3.25;1.00;;;17.90;99.90;;;;;;5023227;28;20049;-71
2022/05/12 09:21:28;;;;;;;4.75;1.33;;;18.10;99.90;;;;;;5032631;28;20026;-71
2022/05/12 09:23:54;;;;;;;5.07;1.30;;;18.30;99.90;;;;;;5017858;28;20113;-72
2022/05/12 09:26:46;;;;;;;3.38;1.20;;;18.50;99.90;;;;;;5006034;28;20030;-71
2022/05/12 09:29:16;;;;;;;7.30;1.70;;;18.70;99.90;;;;;;5034376;28;20035;-70
2022/05/12 09:31:47;;;;;;;5.45;1.27;;;18.30;99.90;;;;;;5036257;28;20033;-71
2022/05/12 09:34:20;;;;;;;6.55;1.48;;;18.20;99.90;;;;;;5024298;28;20033;-70
2022/05/12 09:36:46;;;;;;;6.13;1.45;;;18.00;99.90;;;;;;5020620;28;20489;-71
2022/05/12 09:41:55;;;;;;;5.95;1.40;;;18.00;99.90;;;;;;5055710;22;20042;-72
2022/05/12 09:44:24;;;;;;;5.43;1.40;;;18.10;99.90;;;;;;5023754;28;20034;-72
2022/05/12 09:47:07;;;;;;;3.72;1.30;;;18.30;99.90;;;;;;4997431;28;20113;-72
2022/05/12 09:49:44;;;;;;;2.15;0.88;;;18.50;99.90;;;;;;5015389;28;20041;-73
2022/05/12 09:52:32;;;;;;;3.58;0.82;;;18.40;99.90;;;;;;5015399;28;20050;-72
2022/05/12 09:55:27;;;;;;;1.88;0.95;;;18.40;99.90;;;;;;5014219;28;20018;-72
2022/05/12 09:57:56;;;;;;;1.27;0.75;;;18.50;99.90;;;;;;4987784;28;20188;-72
2022/05/12 10:00:30;;;;;;;3.80;0.90;;;18.50;99.90;;;;;;5020226;28;20033;-72
2022/05/12 10:09:15;;;;;;;6.45;1.23;;;18.10;99.90;;;;;;5035050;28;20445;-73
2022/05/12 10:12:02;;;;;;;3.50;1.23;;;17.80;99.90;;;;;;5034699;28;20041;-72
2022/05/12 10:14:46;;;;;;;2.22;1.02;;;17.90;99.90;;;;;;5022536;28;20536;-73
2022/05/12 10:17:44;;;;;;;3.67;0.90;;;18.30;99.90;;;;;;5014298;28;20030;-72
2022/05/12 10:20:18;;;;;;;5.18;1.00;;;18.60;99.90;;;;;;5021780;28;20017;-73
2022/05/12 10:23:12;;;;;;;1.42;0.68;;;18.70;99.90;;;;;;5027216;28;20029;-72
2022/05/12 10:26:02;;;;;;;4.25;1.25;;;18.80;99.10;;;;;;5018819;28;20383;-73
2022/05/12 10:28:33;;;;;;;2.63;1.20;;;18.70;99.40;;;;;;5007450;28;20033;-72
2022/05/12 10:31:17;;;;;;;4.05;1.13;;;18.70;99.90;;;;;;5024335;28;20037;-72
2022/05/12 10:33:51;;;;;;;2.03;1.08;;;18.80;99.80;;;;;;5036443;28;20088;-72
2022/05/12 10:36:35;;;;;;;6.05;1.23;;;18.90;99.90;;;;;;5043536;28;20360;-71
2022/05/12 10:39:15;;;;;;;1.67;0.80;;;18.90;99.30;;;;;;5034121;28;20030;-72
2022/05/12 10:41:54;;;;;;;3.92;1.27;;;19.00;99.50;;;;;;5026757;28;20030;-72
2022/05/12 10:44:52;;;;;;;5.13;1.00;;;19.20;97.60;;;;;;5027494;28;20030;-72
2022/05/12 10:47:33;;;;;;;3.35;0.93;;;19.30;95.80;;;;;;5026301;28;20017;-72
2022/05/12 10:50:16;;;;;;;2.45;0.93;;;19.30;96.00;;;;;;5030878;28;20025;-72
2022/05/12 10:53:17;;;;;;;3.10;0.90;;;19.30;96.50;;;;;;5030378;28;20081;-73
2022/05/12 10:55:52;;;;;;;2.15;0.93;;;19.50;96.80;;;;;;4983254;28;20124;-72
2022/05/12 10:58:45;;;;;;;1.30;0.77;;;19.80;95.90;;;;;;5020958;28;20029;-72
2022/05/12 11:01:44;;;;;;;3.42;0.80;;;19.90;95.10;;;;;;5024124;28;20391;-72
2022/05/12 11:04:15;;;;;;;3.75;1.33;;;19.90;94.60;;;;;;5024097;28;20045;-72
2022/05/12 11:06:52;;;;;;;5.45;1.20;;;19.70;94.00;;;;;;5021750;28;20475;-73
2022/05/12 11:09:31;;;;;;;5.78;1.00;;;19.90;94.50;;;;;;5021694;28;20026;-72
2022/05/12 11:12:03;;;;;;;2.33;1.10;;;20.00;93.00;;;;;;5024374;28;20105;-72
2022/05/12 11:14:46;;;;;;;4.30;1.05;;;20.00;93.20;;;;;;5025272;28;20487;-73
2022/05/12 11:17:17;;;;;;;5.97;0.90;;;19.80;93.70;;;;;;5035671;28;20116;-72
2022/05/12 11:19:52;;;;;;;1.88;0.90;;;20.00;94.10;;;;;;5035731;28;20430;-72
2022/05/12 11:22:46;;;;;;;2.55;1.13;;;19.90;92.80;;;;;;5036318;28;20147;-71
2022/05/12 11:25:30;;;;;;;3.67;0.95;;;19.70;92.90;;;;;;5014364;28;20022;-72
2022/05/12 11:31:24;;;;;;;3.05;1.10;;;19.50;93.40;;;;;;4994101;28;20131;-72
2022/05/12 11:33:54;;;;;;;3.35;0.82;;;19.30;93.10;;;;;;4994664;28;20026;-72
2022/05/12 11:36:20;;;;;;;5.10;1.52;;;19.20;93.60;;;;;;5000918;28;20033;-71
2022/05/12 11:38:53;;;;;;;5.55;1.05;;;19.10;93.10;;;;;;5017697;28;20581;-72
2022/05/12 11:41:27;;;;;;;3.75;1.08;;;19.10;93.70;;;;;;4987327;28;1022579;-72
2022/05/12 11:44:24;;;;;;;7.55;1.58;;;19.20;93.50;;;;;;5037032;28;20075;-71
2022/05/12 11:47:17;;;;;;;5.38;1.20;;;19.30;93.60;;;;;;5037043;28;20378;-71
2022/05/12 11:49:43;;;;;;;1.67;0.80;;;19.20;92.40;;;;;;5036246;28;20143;-73
2022/05/12 11:52:22;;;;;;;3.17;1.20;;;19.10;93.30;;;;;;5035464;28;20478;-73
2022/05/12 11:55:02;;;;;;;6.30;1.30;;;19.40;92.90;;;;;;5036813;28;20371;-72
2022/05/12 11:57:37;;;;;;;2.70;1.23;;;19.70;92.50;;;;;;5036756;28;20449;-72
2022/05/12 12:00:09;;;;;;;2.38;1.13;;;20.00;91.60;;;;;;5040390;28;20014;-72
2022/05/12 12:02:39;;;;;;;6.82;1.15;;;20.00;91.00;;;;;;5037393;28;20044;-72
2022/05/12 12:05:12;;;;;;;5.47;1.10;;;20.00;91.00;;;;;;5036793;28;20025;-72
2022/05/12 12:07:38;;;;;;;4.03;1.15;;;19.90;91.60;;;;;;5036204;28;20029;-72
2022/05/12 12:10:31;;;;;;;4.03;1.05;;;20.00;91.90;;;;;;5036420;28;20029;-72
2022/05/12 12:13:02;;;;;;;4.07;0.90;;;20.10;90.60;;;;;;5033816;28;20117;-72
2022/05/12 12:15:30;;;;;;;6.10;1.40;;;20.20;91.20;;;;;;5036259;28;20040;-71
2022/05/12 12:17:57;;;;;;;2.13;1.00;;;20.20;90.70;;;;;;5036686;28;20088;-72
2022/05/12 12:20:28;;;;;;;2.67;1.10;;;20.10;91.30;;;;;;5036215;28;20135;-71
2022/05/12 12:22:56;;;;;;;4.22;0.88;;;20.00;91.80;;;;;;5035094;28;20033;-72
2022/05/12 12:25:38;;;;;;;2.20;1.08;;;20.20;92.20;;;;;;5036184;28;20033;-72
2022/05/12 12:28:27;;;;;;;3.63;1.45;;;20.10;91.20;;;;;;5037611;28;20117;-71
2022/05/12 12:30:53;;;;;;;5.50;1.75;;;19.90;90.80;;;;;;5035801;28;20056;-72
2022/05/12 12:33:24;;;;;;;7.18;1.58;;;19.70;91.30;;;;;;5036330;28;20037;-72
2022/05/12 12:36:17;;;;;;;4.85;1.90;;;19.60;91.70;;;;;;5035754;28;20026;-73
2022/05/12 12:38:48;;;;;;;8.73;2.10;;;19.70;91.80;;;;;;5035526;28;20056;-72
2022/05/12 12:41:31;;;;;;;7.80;2.72;;;19.90;91.60;;;;;;5035945;28;20163;-72
2022/05/12 12:44:22;;;;;;;6.55;2.47;;;19.90;91.20;;;;;;5035053;28;20033;-72
2022/05/12 12:47:14;;;;;;;8.50;3.75;;;19.80;91.90;;;;;;5036091;28;20022;-72
2022/05/12 12:49:51;;;;;;;9.38;3.47;;;19.90;92.10;;;;;;5033940;28;20114;-72
2022/05/12 12:52:18;;;;;;;10.20;5.70;;;20.00;92.40;;;;;;5036816;28;20030;-72
2022/05/12 12:57:50;;;;;;;12.32;8.02;;;19.90;91.50;;;;;;5035647;28;20411;-71
2022/05/12 13:00:34;;;;;;;15.15;8.98;;;20.00;91.40;;;;;;5035716;28;20022;-72
2022/05/12 13:03:07;;;;;;;18.48;11.10;;;19.90;90.80;;;;;;5035685;28;20089;-73
2022/05/12 13:05:36;;;;;;;17.90;10.63;;;19.80;91.10;;;;;;5035531;28;20021;-72
2022/05/12 13:08:10;;;;;;;19.60;12.45;;;19.60;91.30;;;;;;5035772;28;20112;-72
2022/05/12 13:10:49;;;;;;;23.17;12.77;;;19.40;91.60;;;;;;5036958;28;20025;-72
2022/05/12 13:13:15;;;;;;;18.38;12.52;;;19.30;92.40;;;;;;5035331;28;20031;-72
2022/05/12 13:15:45;;;;;;;18.77;13.05;;;19.40;92.30;;;;;;5035313;28;20068;-72
2022/05/12 13:18:21;;;;;;;16.70;12.20;;;19.60;92.20;;;;;;5036085;28;20025;-71
2022/05/12 13:20:49;;;;;;;21.73;12.98;;;19.60;91.60;;;;;;5035933;28;20044;-72
2022/05/12 13:23:18;;;;;;;20.05;12.77;;;19.60;92.20;;;;;;5035520;28;20018;-70
2022/05/12 13:25:44;;;;;;;20.83;12.25;;;19.80;92.50;;;;;;5036859;28;20057;-71
2022/05/12 13:28:19;;;;;;;19.02;11.13;;;19.90;91.90;;;;;;5035621;28;20475;-71